Time;durP1;ratioP1;P1;durP2;ratioP2;P2;SDS_P1;SDS_P2;PMS_P1;PMS_P2;Temp;Humidity;BMP_temperature;BMP_pressure;BME280_temperature;BME280_humidity;BME280_pressure;Samples;Min_cycle;Max_cycle;Signal;HPM_P1;HPM_P2
2022/11/20 00:01:17;;;;;;;5.43;1.70;;;;;;;15.22;100.00;92422.84;5068961;28;20040;-71
2022/11/20 00:03:43;;;;;;;4.93;1.65;;;;;;;15.22;100.00;92409.13;5068954;28;20452;-71
2022/11/20 00:06:12;;;;;;;5.05;2.10;;;;;;;15.22;100.00;92414.31;5069145;28;20603;-72
2022/11/20 00:08:39;;;;;;;6.20;2.10;;;;;;;15.20;100.00;92398.28;5069346;28;20040;-71
2022/11/20 00:11:07;;;;;;;6.35;1.88;;;;;;;15.22;100.00;92396.19;5069308;28;20045;-71
2022/11/20 00:13:34;;;;;;;10.00;2.13;;;;;;;15.18;100.00;92383.00;5069004;28;20048;-72
2022/11/20 00:16:01;;;;;;;6.13;2.15;;;;;;;15.23;100.00;92390.78;5069081;28;20455;-72
2022/11/20 00:18:33;;;;;;;6.85;2.42;;;;;;;15.15;100.00;92375.00;5068846;28;20048;-72
2022/11/20 00:21:03;;;;;;;8.27;2.33;;;;;;;15.22;100.00;92391.03;5068859;28;20098;-72
2022/11/20 00:23:30;;;;;;;7.03;1.48;;;;;;;15.18;100.00;92387.41;5069055;28;20630;-72
2022/11/20 00:25:57;;;;;;;7.63;2.17;;;;;;;15.18;100.00;92371.91;5068933;28;20044;-72
2022/11/20 00:28:23;;;;;;;5.68;2.20;;;;;;;15.17;100.00;92375.50;5068829;28;20098;-72
2022/11/20 00:30:50;;;;;;;8.93;2.65;;;;;;;15.22;100.00;92372.91;5068953;28;20141;-72
2022/11/20 00:33:17;;;;;;;9.63;2.53;;;;;;;15.14;100.00;92363.09;5069091;28;20044;-72
2022/11/20 00:35:45;;;;;;;11.10;3.90;;;;;;;15.14;100.00;92376.03;5068985;28;20040;-72
2022/11/20 00:38:11;;;;;;;7.30;2.33;;;;;;;15.17;100.00;92380.69;5068494;28;20064;-72
2022/11/20 00:40:38;;;;;;;4.70;1.73;;;;;;;15.18;100.00;92402.94;5068767;28;20044;-72
2022/11/20 00:43:05;;;;;;;9.25;2.38;;;;;;;15.15;100.00;92390.50;5068907;28;20053;-72
2022/11/20 00:45:32;;;;;;;7.28;1.90;;;;;;;15.17;100.00;92391.81;5068276;28;20098;-72
2022/11/20 00:47:58;;;;;;;7.25;2.20;;;;;;;15.00;100.00;92366.19;5068542;28;20049;-73
2022/11/20 00:50:25;;;;;;;11.20;2.15;;;;;;;15.17;100.00;92394.41;5068452;28;20076;-71
2022/11/20 00:52:53;;;;;;;8.27;2.55;;;;;;;15.12;100.00;92394.38;5072194;28;20064;-73
2022/11/20 00:55:20;;;;;;;4.72;1.95;;;;;;;15.07;100.00;92390.00;5074437;28;20048;-72
2022/11/20 00:57:46;;;;;;;5.75;2.20;;;;;;;15.11;100.00;92379.91;5072242;28;20044;-73
2022/11/20 01:00:13;;;;;;;4.53;2.05;;;;;;;15.12;100.00;92380.66;5072082;28;20048;-72
2022/11/20 01:02:40;;;;;;;7.18;1.77;;;;;;;15.05;100.00;92388.69;5072685;28;20045;-73
2022/11/20 01:05:07;;;;;;;4.95;1.85;;;;;;;15.06;100.00;92390.25;5072247;28;20048;-72
2022/11/20 01:07:34;;;;;;;7.03;2.08;;;;;;;15.07;100.00;92384.03;5072320;28;20052;-73
2022/11/20 01:10:02;;;;;;;4.00;1.60;;;;;;;15.06;100.00;92388.44;5072088;28;20129;-72
2022/11/20 01:12:29;;;;;;;5.53;2.05;;;;;;;15.05;100.00;92368.00;5072452;28;20048;-73
2022/11/20 01:14:55;;;;;;;5.32;2.20;;;;;;;15.09;100.00;92377.56;5072148;28;20426;-73
2022/11/20 01:17:22;;;;;;;4.82;2.25;;;;;;;15.12;100.00;92365.16;5072392;28;20122;-71
2022/11/20 01:19:50;;;;;;;5.20;2.05;;;;;;;15.13;100.00;92359.72;5071953;28;20114;-71
2022/11/20 01:22:17;;;;;;;5.95;2.22;;;;;;;15.10;100.00;92370.59;5072252;28;20048;-73
2022/11/20 01:24:43;;;;;;;7.00;2.15;;;;;;;15.08;100.00;92347.56;5071902;28;20048;-71
2022/11/20 01:27:11;;;;;;;6.03;1.27;;;;;;;15.12;100.00;92349.63;5072042;28;20495;-71
2022/11/20 01:29:38;;;;;;;5.60;1.38;;;;;;;15.12;100.00;92350.41;5071872;28;20567;-71
2022/11/20 01:32:05;;;;;;;7.30;1.70;;;;;;;15.09;100.00;92346.53;5072386;28;20048;-71
2022/11/20 01:34:32;;;;;;;7.57;2.15;;;;;;;15.13;100.00;92348.63;5071556;28;20562;-71
2022/11/20 01:36:58;;;;;;;6.97;2.00;;;;;;;15.14;100.00;92345.75;5071962;28;20045;-72
2022/11/20 01:39:27;;;;;;;10.50;2.33;;;;;;;15.16;100.00;92340.31;5072000;28;20167;-72
2022/11/20 01:44:50;;;;;;;7.03;2.13;;;;;;;15.10;100.00;92347.31;5071637;28;20047;-72
2022/11/20 01:47:21;;;;;;;5.70;1.73;;;;;;;15.11;100.00;92346.28;5071726;28;20101;-71
2022/11/20 01:49:51;;;;;;;7.18;1.55;;;;;;;15.09;100.00;92331.03;5071428;28;20102;-71
2022/11/20 01:52:22;;;;;;;7.65;1.80;;;;;;;15.10;100.00;92344.75;5071705;28;20052;-71
2022/11/20 01:54:53;;;;;;;7.00;1.58;;;;;;;15.12;100.00;92340.06;5072840;28;20101;-72
2022/11/20 01:57:25;;;;;;;4.45;1.55;;;;;;;15.10;100.00;92332.56;5071401;28;20056;-72
2022/11/20 01:59:58;;;;;;;4.63;1.50;;;;;;;15.14;100.00;92352.75;5071116;28;20102;-71
2022/11/20 02:02:25;;;;;;;7.50;1.92;;;;;;;15.00;100.00;92344.72;5070603;28;20072;-72
2022/11/20 02:04:55;;;;;;;5.82;1.63;;;;;;;15.12;100.00;92368.53;5070763;28;20085;-71
2022/11/20 02:07:24;;;;;;;5.57;2.15;;;;;;;15.14;100.00;92374.19;5071176;28;20496;-71
2022/11/20 02:09:52;;;;;;;8.40;1.92;;;;;;;15.13;100.00;92358.97;5070989;28;20137;-71
2022/11/20 02:15:01;;;;;;;5.45;1.58;;;;;;;15.17;100.00;92375.50;5071592;28;20047;-73
2022/11/20 02:17:28;;;;;;;5.38;1.67;;;;;;;15.17;100.00;92380.69;5070762;28;20041;-73
2022/11/20 02:19:55;;;;;;;7.35;1.95;;;;;;;15.14;100.00;92387.13;5070818;28;20494;-72
2022/11/20 02:22:30;;;;;;;4.55;1.40;;;;;;;15.12;100.00;92378.88;5071084;28;20149;-72
2022/11/20 02:25:00;;;;;;;3.55;1.35;;;;;;;15.10;100.00;92386.13;5070476;28;20071;-72
2022/11/20 02:27:28;;;;;;;4.82;1.27;;;;;;;15.13;100.00;92382.25;5070835;28;20062;-72
2022/11/20 02:29:59;;;;;;;4.43;1.75;;;;;;;15.09;100.00;92362.06;5070503;28;20040;-71
2022/11/20 02:32:28;;;;;;;3.13;1.10;;;;;;;15.05;100.00;92370.59;5070358;28;20090;-73
2022/11/20 02:34:54;;;;;;;2.15;1.13;;;;;;;15.05;100.00;92386.13;5070436;28;20566;-72
2022/11/20 02:37:22;;;;;;;4.15;1.40;;;;;;;15.04;100.00;92380.16;5070627;28;20052;-71
2022/11/20 02:39:51;;;;;;;6.45;2.00;;;;;;;15.03;100.00;92378.59;5070846;28;20048;-70
2022/11/20 02:42:19;;;;;;;3.03;1.50;;;;;;;15.04;100.00;92389.75;5070788;28;20048;-71
2022/11/20 02:44:46;;;;;;;5.22;1.52;;;;;;;15.00;100.00;92399.78;5070576;28;20141;-70
2022/11/20 02:47:12;;;;;;;2.75;1.30;;;;;;;14.99;100.00;92408.59;5070461;28;20571;-71
2022/11/20 02:49:39;;;;;;;4.38;1.50;;;;;;;15.02;100.00;92408.09;5070428;28;20838;-71
2022/11/20 02:52:06;;;;;;;2.22;0.80;;;;;;;15.04;100.00;92416.38;5070435;28;20056;-72
2022/11/20 02:54:32;;;;;;;6.60;1.40;;;;;;;15.07;100.00;92415.06;5072101;28;20060;-71
2022/11/20 02:56:59;;;;;;;3.40;1.20;;;;;;;15.12;100.00;92424.63;5070401;28;20087;-72
2022/11/20 02:59:27;;;;;;;3.08;1.48;;;;;;;15.09;100.00;92428.53;5101959;28;20047;-71
2022/11/20 03:01:54;;;;;;;3.38;1.30;;;;;;;15.11;100.00;92426.47;5111293;28;20043;-71
2022/11/20 03:04:20;;;;;;;4.97;1.40;;;;;;;15.05;100.00;92424.91;5111197;28;20044;-71
2022/11/20 03:06:47;;;;;;;4.07;1.23;;;;;;;15.02;100.00;92436.53;5111093;28;20497;-71
2022/11/20 03:09:14;;;;;;;3.88;1.10;;;;;;;14.97;100.00;92428.78;5111243;28;20044;-71
2022/11/20 03:11:41;;;;;;;7.25;1.70;;;;;;;14.95;100.00;92441.19;5111437;28;20051;-72
2022/11/20 03:14:07;;;;;;;4.65;1.83;;;;;;;14.90;100.00;92434.19;5110772;28;20116;-71
2022/11/20 03:16:35;;;;;;;3.63;1.50;;;;;;;14.89;100.00;92447.34;5110670;27;20044;-71
2022/11/20 03:19:02;;;;;;;5.35;1.92;;;;;;;14.93;100.00;92454.38;5110726;28;20093;-72
2022/11/20 03:21:29;;;;;;;5.40;1.75;;;;;;;14.89;100.00;92466.25;5111065;28;20044;-72
2022/11/20 03:23:56;;;;;;;5.32;1.70;;;;;;;14.95;100.00;92469.63;5111058;28;20055;-71
2022/11/20 03:26:25;;;;;;;3.28;1.70;;;;;;;14.84;100.00;92442.97;5110750;28;20040;-71
2022/11/20 03:28:53;;;;;;;5.85;1.30;;;;;;;14.96;100.00;92482.28;5110687;28;20047;-71
2022/11/20 03:31:22;;;;;;;4.82;1.30;;;;;;;14.94;100.00;92468.84;5110620;28;20064;-71
2022/11/20 03:33:50;;;;;;;4.60;1.50;;;;;;;14.72;100.00;92448.31;5110804;28;20051;-72
2022/11/20 03:36:19;;;;;;;3.22;1.45;;;;;;;14.94;100.00;92483.56;5110524;28;20573;-72
2022/11/20 03:38:46;;;;;;;2.35;1.17;;;;;;;14.96;100.00;92474.53;5110431;28;20093;-72
2022/11/20 03:41:15;;;;;;;3.08;1.55;;;;;;;14.91;100.00;92461.59;5101126;28;20048;-71
2022/11/20 03:43:42;;;;;;;5.93;1.73;;;;;;;14.80;100.00;92447.88;5106143;28;20128;-72
2022/11/20 03:46:09;;;;;;;3.83;1.20;;;;;;;14.88;100.00;92444.00;5110607;28;20469;-71
2022/11/20 03:48:36;;;;;;;2.70;1.17;;;;;;;14.81;100.00;92433.13;5110561;28;20048;-71
2022/11/20 03:51:12;;;;;;;5.10;1.50;;;;;;;14.80;100.00;92447.06;5110252;28;20582;-72
2022/11/20 03:53:39;;;;;;;4.80;1.65;;;;;;;14.80;100.00;92460.00;5104795;28;20125;-71
2022/11/20 03:56:07;;;;;;;3.67;1.20;;;;;;;14.78;100.00;92462.06;5087870;28;20505;-72
2022/11/20 03:58:34;;;;;;;4.28;1.80;;;;;;;14.77;100.00;92474.22;5110205;28;20104;-71
2022/11/20 04:01:05;;;;;;;3.72;1.38;;;;;;;14.76;100.00;92479.66;5110406;28;20706;-71
2022/11/20 04:03:32;;;;;;;5.55;1.67;;;;;;;14.73;100.00;92470.56;5109878;28;20051;-71
2022/11/20 04:06:03;;;;;;;4.35;1.00;;;;;;;14.72;100.00;92469.00;5110339;28;20096;-71
2022/11/20 04:08:31;;;;;;;6.47;1.65;;;;;;;14.73;100.00;92469.78;5110076;28;20493;-71
2022/11/20 04:10:57;;;;;;;5.05;2.08;;;;;;;14.73;100.00;92480.91;5110220;28;20040;-71
2022/11/20 04:13:24;;;;;;;10.52;1.88;;;;;;;14.67;100.00;92463.81;5110289;28;20143;-71
2022/11/20 04:15:51;;;;;;;6.22;1.50;;;;;;;14.75;100.00;92467.75;5110031;28;20047;-71
2022/11/20 04:18:17;;;;;;;6.63;1.80;;;;;;;14.80;100.00;92472.94;5109794;28;20104;-71
2022/11/20 04:20:44;;;;;;;7.68;2.00;;;;;;;14.79;100.00;92464.41;5109892;28;20585;-71
2022/11/20 04:23:11;;;;;;;3.53;1.60;;;;;;;14.78;100.00;92470.63;5110007;28;20131;-71
2022/11/20 04:25:39;;;;;;;5.60;1.67;;;;;;;14.83;100.00;92483.53;5108933;28;20044;-72
2022/11/20 04:28:05;;;;;;;8.82;1.80;;;;;;;14.79;100.00;92474.75;5110121;28;20155;-72
2022/11/20 04:30:32;;;;;;;5.28;1.33;;;;;;;14.79;100.00;92492.06;5109377;28;20097;-72
2022/11/20 04:32:59;;;;;;;4.93;1.30;;;;;;;14.67;100.00;92472.34;5110012;28;20112;-72
2022/11/20 04:35:25;;;;;;;6.30;1.27;;;;;;;14.75;100.00;92478.88;5100119;28;20090;-72
2022/11/20 04:37:52;;;;;;;5.00;2.28;;;;;;;14.73;100.00;92485.28;5103384;28;20047;-72
2022/11/20 04:40:19;;;;;;;6.38;1.40;;;;;;;14.76;100.00;92490.00;5109727;28;20128;-72
2022/11/20 04:42:47;;;;;;;4.72;1.83;;;;;;;14.68;100.00;92481.66;5109857;28;20447;-72
2022/11/20 04:45:14;;;;;;;7.53;2.03;;;;;;;14.69;100.00;92472.88;5107193;28;20135;-71
2022/11/20 04:47:40;;;;;;;4.80;1.33;;;;;;;14.61;100.00;92467.41;5084124;28;20052;-72
2022/11/20 04:50:08;;;;;;;5.07;1.48;;;;;;;14.50;100.00;92462.22;5109932;28;20051;-72
2022/11/20 04:52:34;;;;;;;6.07;1.90;;;;;;;14.51;100.00;92471.53;5081307;28;20100;-72
2022/11/20 04:55:01;;;;;;;6.78;2.42;;;;;;;14.47;100.00;92461.91;5080771;28;20045;-72
2022/11/20 04:57:28;;;;;;;10.93;2.75;;;;;;;14.46;100.00;92460.38;5069379;28;20496;-73
2022/11/20 04:59:56;;;;;;;7.43;2.13;;;;;;;14.41;100.00;92456.72;5098926;28;20079;-72
2022/11/20 05:02:22;;;;;;;9.35;2.58;;;;;;;14.40;100.00;92436.34;5080845;28;20129;-72
2022/11/20 05:04:49;;;;;;;9.43;2.78;;;;;;;14.26;100.00;92436.00;5109790;28;20052;-72
2022/11/20 05:07:16;;;;;;;4.35;1.90;;;;;;;14.21;100.00;92433.41;5080959;28;20043;-72
2022/11/20 05:09:43;;;;;;;8.18;1.83;;;;;;;14.15;100.00;92428.22;5109430;28;20051;-72
2022/11/20 05:12:10;;;;;;;7.03;1.83;;;;;;;14.15;100.00;92435.97;5074018;28;20532;-72
2022/11/20 05:14:36;;;;;;;3.70;1.50;;;;;;;14.13;100.00;92426.91;5105327;28;20052;-72
2022/11/20 05:17:04;;;;;;;3.92;2.10;;;;;;;14.10;100.00;92433.34;5080596;28;20045;-72
2022/11/20 05:19:31;;;;;;;5.40;1.50;;;;;;;14.09;100.00;92433.59;5109566;28;20047;-73
2022/11/20 05:21:58;;;;;;;3.67;1.55;;;;;;;14.08;100.00;92438.00;5080581;28;20121;-73
2022/11/20 05:24:24;;;;;;;11.38;2.65;;;;;;;14.07;100.00;92436.41;5089533;28;20450;-72
2022/11/20 05:26:51;;;;;;;5.80;1.90;;;;;;;14.02;100.00;92452.66;5096885;28;20040;-72
2022/11/20 05:29:18;;;;;;;7.15;2.53;;;;;;;14.02;100.00;92444.91;5104023;28;20077;-72
2022/11/20 05:31:44;;;;;;;6.43;2.20;;;;;;;14.04;100.00;92436.94;5102532;28;20044;-73
2022/11/20 05:34:13;;;;;;;5.65;2.00;;;;;;;14.06;100.00;92423.78;5085571;28;20052;-73
2022/11/20 05:36:39;;;;;;;7.05;2.20;;;;;;;14.02;100.00;92429.44;5068634;28;20547;-72
2022/11/20 05:39:06;;;;;;;5.35;1.73;;;;;;;13.98;100.00;92419.84;5076810;28;20052;-72
2022/11/20 05:41:34;;;;;;;6.82;1.60;;;;;;;14.02;100.00;92432.00;5079332;28;20459;-71
2022/11/20 05:44:00;;;;;;;5.20;1.60;;;;;;;14.07;100.00;92430.50;5086698;28;20570;-70
2022/11/20 05:46:28;;;;;;;9.52;2.28;;;;;;;14.10;100.00;92430.75;5113045;28;20825;-70
2022/11/20 05:48:55;;;;;;;7.10;2.17;;;;;;;14.14;100.00;92425.88;5112795;28;20497;-70
2022/11/20 05:51:23;;;;;;;4.95;2.05;;;;;;;14.18;100.00;92421.75;5112599;28;20051;-71
2022/11/20 05:53:49;;;;;;;5.78;1.60;;;;;;;14.24;100.00;92427.72;5104199;28;20082;-71
2022/11/20 05:56:18;;;;;;;5.32;1.60;;;;;;;14.27;100.00;92429.81;5092815;28;20059;-71
2022/11/20 05:58:46;;;;;;;7.85;1.70;;;;;;;14.27;100.00;92422.81;5076861;28;20110;-71
2022/11/20 06:01:15;;;;;;;4.78;2.47;;;;;;;14.21;100.00;92423.84;5100278;28;20052;-71
2022/11/20 06:03:45;;;;;;;6.72;2.03;;;;;;;14.24;100.00;92431.09;5112671;27;20047;-72
2022/11/20 06:06:12;;;;;;;8.25;2.42;;;;;;;14.21;100.00;92423.84;5112407;28;20048;-71
2022/11/20 06:08:40;;;;;;;7.88;3.22;;;;;;;14.22;100.00;92427.19;5095357;28;20040;-73
2022/11/20 06:11:09;;;;;;;6.25;2.03;;;;;;;14.25;100.00;92430.06;5096521;28;20044;-71
2022/11/20 06:13:36;;;;;;;4.70;2.15;;;;;;;14.17;100.00;92438.28;5112202;28;20039;-71
2022/11/20 06:16:03;;;;;;;6.25;1.90;;;;;;;14.27;100.00;92434.97;5112121;28;20052;-71
2022/11/20 06:18:30;;;;;;;7.10;2.15;;;;;;;14.26;100.00;92436.78;5112201;28;20051;-71
2022/11/20 06:21:02;;;;;;;4.75;1.85;;;;;;;14.29;100.00;92441.44;5091037;28;20044;-71
2022/11/20 06:23:30;;;;;;;5.85;2.05;;;;;;;14.36;100.00;92437.84;5094986;28;20139;-71
2022/11/20 06:25:58;;;;;;;4.75;1.55;;;;;;;14.40;100.00;92449.25;5111664;28;20289;-71
2022/11/20 06:28:25;;;;;;;4.82;1.80;;;;;;;14.44;100.00;92439.94;5111991;28;20509;-71
2022/11/20 06:30:51;;;;;;;5.28;2.00;;;;;;;14.48;100.00;92438.41;5107834;28;20647;-71
2022/11/20 06:33:18;;;;;;;3.20;1.80;;;;;;;14.60;100.00;92448.56;5079535;28;20055;-71
2022/11/20 06:35:45;;;;;;;5.15;1.48;;;;;;;14.66;100.00;92444.16;5097890;28;20079;-71
2022/11/20 06:38:12;;;;;;;5.97;1.73;;;;;;;14.69;100.00;92451.44;5076734;28;20489;-71
2022/11/20 06:40:41;;;;;;;4.90;1.80;;;;;;;14.79;100.00;92453.28;5111382;28;20520;-71
2022/11/20 06:43:09;;;;;;;6.20;2.17;;;;;;;14.81;100.00;92454.59;5111661;28;20081;-71
2022/11/20 06:45:35;;;;;;;9.45;2.30;;;;;;;14.88;100.00;92449.19;5111694;28;20048;-70
2022/11/20 06:48:02;;;;;;;4.80;1.40;;;;;;;14.82;100.00;92447.63;5111423;28;20052;-71
2022/11/20 06:50:29;;;;;;;6.95;2.55;;;;;;;14.82;100.00;92442.44;5082863;28;20047;-71
2022/11/20 06:52:56;;;;;;;4.50;2.10;;;;;;;14.81;100.00;92438.28;5079671;28;20044;-72
2022/11/20 06:55:22;;;;;;;5.72;2.17;;;;;;;14.71;100.00;92441.59;5083007;28;20105;-72
2022/11/20 06:57:49;;;;;;;5.90;1.77;;;;;;;14.72;100.00;92456.06;5111336;28;20574;-71
2022/11/20 07:00:17;;;;;;;6.93;2.55;;;;;;;14.72;100.00;92471.56;5111375;28;20051;-71
2022/11/20 07:02:44;;;;;;;5.40;2.05;;;;;;;14.72;100.00;92473.41;5095331;28;20055;-71
2022/11/20 07:05:11;;;;;;;4.78;2.03;;;;;;;14.67;100.00;92484.47;5111343;28;20047;-71
2022/11/20 07:07:37;;;;;;;7.40;1.88;;;;;;;14.62;100.00;92485.25;5087011;28;20136;-71
2022/11/20 07:10:05;;;;;;;9.95;2.50;;;;;;;14.61;100.00;92493.25;5111051;28;20171;-71
2022/11/20 07:12:32;;;;;;;8.88;5.78;;;;;;;14.57;100.00;92493.78;5111176;28;20485;-71
2022/11/20 07:14:58;;;;;;;14.90;8.73;;;;;;;14.58;100.00;92502.28;5111210;28;20052;-71
2022/11/20 07:17:26;;;;;;;7.40;4.53;;;;;;;14.53;100.00;92497.88;5110398;28;20043;-71
2022/11/20 07:19:53;;;;;;;12.07;4.40;;;;;;;14.55;100.00;92502.81;5110627;28;20040;-71
2022/11/20 07:22:21;;;;;;;11.95;7.40;;;;;;;14.55;100.00;92489.88;5110289;28;20047;-71
2022/11/20 07:24:48;;;;;;;50.88;25.90;;;;;;;14.53;100.00;92505.63;5110411;28;20051;-71
2022/11/20 07:27:14;;;;;;;95.40;43.38;;;;;;;14.53;100.00;92507.44;5110537;28;20577;-71
2022/11/20 07:29:41;;;;;;;139.40;56.75;;;;;;;14.53;100.00;92510.78;5077752;28;20068;-71
2022/11/20 07:32:08;;;;;;;94.28;40.17;;;;;;;14.53;100.00;92512.59;5103492;28;20104;-71
2022/11/20 07:34:36;;;;;;;129.07;58.28;;;;;;;14.53;100.00;92520.34;5110536;28;20096;-71
2022/11/20 07:37:02;;;;;;;124.07;56.35;;;;;;;14.35;100.00;92491.31;5088756;28;20045;-71
2022/11/20 07:39:29;;;;;;;77.95;39.63;;;;;;;14.55;100.00;92498.38;5096388;28;20044;-71
2022/11/20 07:41:56;;;;;;;99.85;51.08;;;;;;;14.59;100.00;92505.66;5110307;28;20044;-71
2022/11/20 07:44:22;;;;;;;69.38;37.53;;;;;;;14.56;100.00;92505.13;5083624;28;20044;-73
2022/11/20 07:46:49;;;;;;;33.85;20.92;;;;;;;14.62;100.00;92505.16;5077969;28;20035;-71
2022/11/20 07:49:16;;;;;;;51.67;29.42;;;;;;;14.69;100.00;92514.22;5109335;28;20573;-72
2022/11/20 07:51:44;;;;;;;54.60;27.92;;;;;;;14.67;100.00;92513.69;5083462;28;20104;-71
2022/11/20 07:54:11;;;;;;;56.75;28.92;;;;;;;14.65;100.00;92513.19;5095750;28;20056;-71
2022/11/20 07:56:48;;;;;;;76.32;35.10;;;;;;;14.63;100.00;92512.66;5082859;28;20105;-71
2022/11/20 07:59:17;;;;;;;28.20;15.82;;;;;;;14.70;100.00;92526.13;5082378;28;20056;-72
2022/11/20 08:01:44;;;;;;;17.48;6.50;;;;;;;14.70;100.00;92531.31;5077920;28;20560;-72
2022/11/20 08:04:11;;;;;;;19.88;12.07;;;;;;;14.66;100.00;92537.22;5074789;28;20106;-72
2022/11/20 08:06:37;;;;;;;19.40;9.60;;;;;;;14.61;100.00;92539.78;5110067;28;20052;-71
2022/11/20 08:09:05;;;;;;;23.55;15.73;;;;;;;14.58;100.00;92517.78;5110238;28;20096;-72
2022/11/20 08:14:16;;;;;;;18.63;10.18;;;;;;;14.51;100.00;92506.91;5109302;28;20071;-71
2022/11/20 08:16:45;;;;;;;15.75;9.05;;;;;;;14.51;100.00;92520.63;5109846;28;20051;-71
2022/11/20 08:19:11;;;;;;;18.05;8.63;;;;;;;14.45;100.00;92524.22;5109666;28;20096;-71
2022/11/20 08:21:38;;;;;;;19.08;10.98;;;;;;;14.45;100.00;92516.47;5110154;28;20044;-71
2022/11/20 08:24:08;;;;;;;28.77;14.25;;;;;;;14.35;100.00;92500.91;5100668;28;20056;-71
2022/11/20 08:26:35;;;;;;;14.57;7.28;;;;;;;14.30;100.00;92515.34;5074347;28;20094;-71
2022/11/20 08:29:02;;;;;;;24.75;13.57;;;;;;;14.22;100.00;92515.03;5110119;28;20089;-71
2022/11/20 08:31:29;;;;;;;21.92;12.48;;;;;;;14.24;100.00;92529.25;5104003;28;20055;-71
2022/11/20 08:33:56;;;;;;;20.27;11.35;;;;;;;14.07;100.00;92518.28;5110070;28;20047;-71
2022/11/20 08:36:24;;;;;;;17.15;9.45;;;;;;;14.00;100.00;92531.41;5074107;28;20463;-71
2022/11/20 08:38:55;;;;;;;9.50;5.22;;;;;;;13.94;100.00;92533.19;5095876;28;20932;-71
2022/11/20 08:41:26;;;;;;;18.40;9.18;;;;;;;13.87;100.00;92532.59;5096446;28;20083;-71
2022/11/20 08:43:56;;;;;;;38.70;18.85;;;;;;;13.80;100.00;92547.53;5109694;28;20471;-71
2022/11/20 08:46:24;;;;;;;22.17;11.70;;;;;;;13.85;100.00;92553.47;5109439;28;20048;-71
2022/11/20 08:48:50;;;;;;;15.52;5.63;;;;;;;13.92;100.00;92563.63;5106394;28;20044;-71
2022/11/20 08:51:17;;;;;;;22.13;12.73;;;;;;;13.97;100.00;92552.53;5101051;28;20080;-71
2022/11/20 08:53:44;;;;;;;22.70;17.33;;;;;;;14.05;100.00;92561.63;5102725;28;20045;-71
2022/11/20 08:56:11;;;;;;;15.77;10.85;;;;;;;14.09;100.00;92558.34;5088348;28;20453;-71
2022/11/20 08:58:40;;;;;;;26.27;17.92;;;;;;;13.96;100.00;92548.41;5107763;28;20637;-71
2022/11/20 09:01:07;;;;;;;43.38;27.83;;;;;;;14.02;100.00;92550.78;5109959;28;20051;-71
2022/11/20 09:03:34;;;;;;;23.98;14.60;;;;;;;14.03;100.00;92552.34;5098541;28;20074;-71
2022/11/20 09:06:01;;;;;;;30.60;18.15;;;;;;;14.06;100.00;92555.47;5109744;28;20095;-71
2022/11/20 09:08:30;;;;;;;48.35;27.25;;;;;;;14.05;100.00;92553.88;5109632;28;20100;-71
2022/11/20 09:10:58;;;;;;;36.75;21.75;;;;;;;14.07;100.00;92559.59;5109554;28;20044;-71
2022/11/20 09:13:26;;;;;;;32.38;17.70;;;;;;;14.07;100.00;92559.59;5112245;28;20043;-71
2022/11/20 09:15:56;;;;;;;24.13;13.45;;;;;;;13.92;100.00;92550.72;5113012;28;20048;-71
2022/11/20 09:18:23;;;;;;;26.90;14.82;;;;;;;13.89;100.00;92551.97;5110373;28;20393;-71
2022/11/20 09:20:49;;;;;;;22.45;11.35;;;;;;;13.85;100.00;92543.16;5091957;28;20052;-71
2022/11/20 09:23:17;;;;;;;19.98;11.70;;;;;;;13.83;100.00;92541.84;5093710;28;20098;-70
2022/11/20 09:25:44;;;;;;;34.70;21.08;;;;;;;13.69;100.00;92526.78;5107778;28;20164;-70
2022/11/20 09:28:11;;;;;;;19.88;10.10;;;;;;;13.89;100.00;92543.47;5113068;28;20079;-70
2022/11/20 09:30:37;;;;;;;21.80;12.48;;;;;;;13.99;100.00;92535.00;5113386;28;20048;-71
2022/11/20 09:33:07;;;;;;;14.57;8.32;;;;;;;14.06;100.00;92517.50;5112595;28;20662;-71
2022/11/20 09:35:33;;;;;;;8.73;4.15;;;;;;;14.08;100.00;92506.94;5113121;28;20059;-70
2022/11/20 09:38:05;;;;;;;16.58;6.95;;;;;;;14.09;100.00;92508.47;5112463;28;20065;-70
2022/11/20 09:40:32;;;;;;;18.67;7.70;;;;;;;14.11;100.00;92511.59;5097533;28;20440;-71
2022/11/20 09:43:04;;;;;;;17.50;9.40;;;;;;;14.13;100.00;92499.22;5113020;28;20097;-70
2022/11/20 09:45:56;;;;;;;14.52;6.60;;;;;;;14.19;100.00;92505.19;5112985;28;20124;-70
2022/11/20 09:48:47;;;;;;;13.15;6.25;;;;;;;14.16;100.00;92514.19;5112760;28;20131;-70
2022/11/20 09:51:24;;;;;;;18.58;8.32;;;;;;;14.20;100.00;92504.94;5112279;28;20103;-70
2022/11/20 09:54:03;;;;;;;22.60;10.02;;;;;;;14.31;100.00;92498.03;5103259;28;20060;-70
2022/11/20 09:56:31;;;;;;;15.50;8.25;;;;;;;14.40;100.00;92488.00;5096728;28;20063;-70
2022/11/20 09:59:04;;;;;;;17.45;8.07;;;;;;;14.45;100.00;92485.44;5112220;28;20044;-70
2022/11/20 10:01:34;;;;;;;13.90;8.55;;;;;;;14.49;100.00;92485.72;5112352;28;20047;-70
2022/11/20 10:04:05;;;;;;;12.70;6.30;;;;;;;14.55;100.00;92482.13;5112280;28;20093;-70
2022/11/20 10:06:34;;;;;;;13.70;6.03;;;;;;;14.60;100.00;92482.16;5111581;28;20100;-70
2022/11/20 10:09:15;;;;;;;15.70;7.22;;;;;;;14.61;100.00;92481.13;5111940;28;20043;-70
2022/11/20 10:11:49;;;;;;;16.80;7.15;;;;;;;14.64;100.00;92480.63;5112097;28;20097;-70
2022/11/20 10:14:31;;;;;;;13.82;4.93;;;;;;;14.59;100.00;92492.72;5111794;28;20092;-70
2022/11/20 10:17:09;;;;;;;14.50;4.13;;;;;;;14.60;100.00;92499.44;5085621;28;20045;-70
2022/11/20 10:19:53;;;;;;;12.50;4.05;;;;;;;14.48;100.00;92484.16;5092758;28;20494;-70
2022/11/20 10:22:32;;;;;;;11.00;4.63;;;;;;;14.50;100.00;92488.06;5105641;28;20100;-70
2022/11/20 10:25:09;;;;;;;9.35;4.15;;;;;;;14.50;100.00;92492.44;5087530;28;20075;-70
2022/11/20 10:28:13;;;;;;;12.43;5.47;;;;;;;14.49;100.00;92494.22;5088560;28;20101;-70
2022/11/20 10:30:43;;;;;;;11.35;4.40;;;;;;;14.32;100.00;92484.09;5075632;28;20058;-70
2022/11/20 10:33:17;;;;;;;9.75;3.88;;;;;;;14.39;100.00;92496.75;5090100;28;20376;-70
2022/11/20 10:35:50;;;;;;;12.52;4.03;;;;;;;14.42;100.00;92493.69;5087534;28;20051;-70
2022/11/20 10:38:23;;;;;;;16.65;4.10;;;;;;;14.42;100.00;92504.03;5083811;28;20402;-70
2022/11/20 10:40:54;;;;;;;10.77;4.07;;;;;;;14.25;100.00;92484.31;5096280;28;20056;-70
2022/11/20 10:43:26;;;;;;;11.32;1.98;;;;;;;14.24;100.00;92506.00;5100704;28;20076;-70
2022/11/20 10:45:59;;;;;;;7.72;3.10;;;;;;;14.05;100.00;92503.03;5071090;28;20053;-70
2022/11/20 10:48:30;;;;;;;7.22;2.15;;;;;;;13.83;100.00;92490.22;5098961;28;20126;-70
2022/11/20 10:51:10;;;;;;;9.68;3.67;;;;;;;13.99;100.00;92547.94;5080609;28;20089;-70
2022/11/20 10:53:56;;;;;;;15.80;4.38;;;;;;;13.47;100.00;92570.72;5078750;28;20094;-71
2022/11/20 10:56:31;;;;;;;3.90;1.52;;;;;;;12.89;100.00;92553.03;5076443;28;20087;-71
2022/11/20 10:59:11;;;;;;;6.70;2.05;;;;;;;12.60;100.00;92540.31;5103844;28;20052;-71
2022/11/20 11:01:41;;;;;;;4.32;2.00;;;;;;;12.25;100.00;92537.00;5111309;28;20505;-71
2022/11/20 11:04:24;;;;;;;6.03;2.65;;;;;;;12.04;100.00;92503.28;5111507;28;20047;-70
2022/11/20 11:06:57;;;;;;;4.82;2.25;;;;;;;11.77;100.00;92473.00;5111251;28;20420;-71
2022/11/20 11:09:36;;;;;;;3.83;1.90;;;;;;;11.83;100.00;92492.66;5111443;28;20047;-70
2022/11/20 11:12:08;;;;;;;5.22;2.35;;;;;;;11.86;100.00;92491.41;5111084;28;20184;-70
2022/11/20 11:14:43;;;;;;;9.27;3.25;;;;;;;11.71;100.00;92479.84;5101512;28;20097;-70
2022/11/20 11:17:22;;;;;;;7.28;3.50;;;;;;;11.75;100.00;92498.16;5099449;28;20104;-70
2022/11/20 11:19:59;;;;;;;8.13;4.03;;;;;;;11.62;100.00;92476.13;5100719;28;20049;-70
2022/11/20 11:22:29;;;;;;;4.97;3.30;;;;;;;11.49;100.00;92472.84;5095035;28;20093;-70
2022/11/20 11:24:56;;;;;;;3.78;2.33;;;;;;;11.55;100.00;92489.13;5110752;28;20101;-71
2022/11/20 11:27:23;;;;;;;8.60;3.58;;;;;;;11.55;100.00;92489.13;5111053;28;20101;-71
2022/11/20 11:29:49;;;;;;;7.05;3.58;;;;;;;11.49;100.00;92492.66;5111219;28;20052;-71
2022/11/20 11:32:20;;;;;;;6.25;3.72;;;;;;;11.48;100.00;92497.00;5106862;28;20048;-71
2022/11/20 11:35:00;;;;;;;5.90;4.03;;;;;;;11.50;100.00;92510.41;5103277;28;20651;-72
2022/11/20 11:37:33;;;;;;;6.15;3.22;;;;;;;11.49;100.00;92516.56;5075805;28;20490;-71